Time;durP1;ratioP1;P1;durP2;ratioP2;P2;SDS_P1;SDS_P2;PMS_P1;PMS_P2;Temp;Humidity;BMP_temperature;BMP_pressure;BME280_temperature;BME280_humidity;BME280_pressure;Samples;Min_cycle;Max_cycle;Signal;HPM_P1;HPM_P2
2023/07/29 00:01:36;;;;;;;8.07;4.43;;;;;;;;;;5117102;28;20431;-74
2023/07/29 00:04:02;;;;;;;8.20;4.60;;;;;;;;;;5099016;28;20027;-75
2023/07/29 00:06:28;;;;;;;7.88;4.03;;;;;;;;;;5099154;28;20485;-74
2023/07/29 00:08:53;;;;;;;9.35;4.90;;;;;;;;;;5117567;28;20069;-74
2023/07/29 00:11:18;;;;;;;8.55;4.72;;;;;;;;;;5117847;28;20028;-74
2023/07/29 00:13:44;;;;;;;8.85;5.10;;;;;;;;;;5116922;28;20028;-75
2023/07/29 00:16:09;;;;;;;8.13;4.68;;;;;;;;;;5099051;28;20023;-74
2023/07/29 00:18:34;;;;;;;8.00;4.22;;;;;;;;;;5095050;28;20080;-74
2023/07/29 00:21:00;;;;;;;8.50;4.55;;;;;;;;;;5116697;28;20447;-74
2023/07/29 00:23:25;;;;;;;8.02;4.35;;;;;;;;;;5096504;28;20107;-74
2023/07/29 00:25:50;;;;;;;6.40;4.25;;;;;;;;;;5096104;28;20027;-74
2023/07/29 00:28:18;;;;;;;8.45;4.57;;;;;;;;;;5096260;28;20069;-74
2023/07/29 00:30:43;;;;;;;5.97;3.97;;;;;;;;;;5096689;28;20058;-74
2023/07/29 00:33:08;;;;;;;7.70;4.25;;;;;;;;;;5096345;28;20051;-74
2023/07/29 00:35:34;;;;;;;7.95;4.70;;;;;;;;;;5095687;28;20024;-74
2023/07/29 00:37:59;;;;;;;6.95;4.43;;;;;;;;;;5096172;28;20055;-74
2023/07/29 00:40:27;;;;;;;7.43;3.88;;;;;;;;;;5096455;28;20510;-74
2023/07/29 00:42:53;;;;;;;6.30;3.42;;;;;;;;;;5078196;28;20028;-74
2023/07/29 00:45:18;;;;;;;6.22;3.67;;;;;;;;;;5096193;28;20023;-74
2023/07/29 00:47:43;;;;;;;7.10;4.13;;;;;;;;;;5077515;28;20422;-74
2023/07/29 00:50:10;;;;;;;5.22;3.30;;;;;;;;;;5096164;28;20016;-74
2023/07/29 00:52:35;;;;;;;7.40;4.18;;;;;;;;;;5078228;28;20024;-74
2023/07/29 00:55:01;;;;;;;5.53;3.80;;;;;;;;;;5077679;28;20478;-74
2023/07/29 00:57:26;;;;;;;5.57;3.80;;;;;;;;;;5097791;28;20028;-75
2023/07/29 00:59:52;;;;;;;6.13;3.97;;;;;;;;;;5098177;28;20069;-74
2023/07/29 01:02:17;;;;;;;7.45;4.38;;;;;;;;;;5115896;28;20063;-74
2023/07/29 01:04:42;;;;;;;5.85;3.30;;;;;;;;;;5098166;28;20557;-74
2023/07/29 01:07:19;;;;;;;6.15;3.22;;;;;;;;;;5116439;28;20089;-74
2023/07/29 01:10:01;;;;;;;5.95;4.00;;;;;;;;;;5097698;28;20488;-74
2023/07/29 01:12:50;;;;;;;9.45;4.25;;;;;;;;;;5097112;28;20404;-74
2023/07/29 01:15:46;;;;;;;6.78;3.92;;;;;;;;;;5116579;28;20024;-74
2023/07/29 01:18:21;;;;;;;7.15;4.05;;;;;;;;;;5101488;28;20042;-74
2023/07/29 01:20:47;;;;;;;7.05;4.32;;;;;;;;;;5098713;28;20380;-74
2023/07/29 01:23:12;;;;;;;7.93;4.25;;;;;;;;;;5096981;28;20020;-74
2023/07/29 01:25:38;;;;;;;7.22;3.88;;;;;;;;;;5115091;28;20022;-74
2023/07/29 01:28:03;;;;;;;5.63;3.80;;;;;;;;;;5106351;28;20069;-74
2023/07/29 01:30:31;;;;;;;7.35;5.07;;;;;;;;;;5115314;28;20374;-75
2023/07/29 01:33:14;;;;;;;8.65;4.80;;;;;;;;;;5114991;28;20024;-74
2023/07/29 01:35:46;;;;;;;8.93;5.15;;;;;;;;;;5080122;28;20030;-74
2023/07/29 01:38:20;;;;;;;8.73;4.97;;;;;;;;;;5097656;28;20417;-74
2023/07/29 01:40:48;;;;;;;6.55;4.63;;;;;;;;;;5096950;28;20019;-74
2023/07/29 01:43:13;;;;;;;8.45;5.93;;;;;;;;;;5097089;28;20051;-74
2023/07/29 01:45:39;;;;;;;11.27;5.25;;;;;;;;;;5097099;28;20051;-74
2023/07/29 01:48:05;;;;;;;9.32;5.60;;;;;;;;;;5096522;28;20035;-74
2023/07/29 01:50:31;;;;;;;8.50;5.18;;;;;;;;;;5114910;28;20118;-74
2023/07/29 01:53:15;;;;;;;8.57;5.45;;;;;;;;;;5099891;28;20032;-75
2023/07/29 01:55:44;;;;;;;7.75;4.85;;;;;;;;;;5115151;28;20127;-74
2023/07/29 01:58:11;;;;;;;7.55;4.75;;;;;;;;;;5097093;28;20047;-74
2023/07/29 02:00:36;;;;;;;11.25;5.57;;;;;;;;;;5096433;28;20453;-74
2023/07/29 02:03:01;;;;;;;8.68;5.07;;;;;;;;;;5114625;28;20031;-74
2023/07/29 02:05:26;;;;;;;9.13;4.93;;;;;;;;;;5114766;28;20435;-74
2023/07/29 02:07:52;;;;;;;10.65;6.00;;;;;;;;;;5097050;28;20051;-74
2023/07/29 02:10:17;;;;;;;8.30;5.25;;;;;;;;;;5114897;28;20027;-74
2023/07/29 02:12:42;;;;;;;9.32;5.32;;;;;;;;;;5113959;28;20069;-74
2023/07/29 02:15:09;;;;;;;8.20;4.93;;;;;;;;;;5114708;28;20024;-74
2023/07/29 02:17:34;;;;;;;10.27;5.25;;;;;;;;;;5114798;28;20031;-74
2023/07/29 02:19:59;;;;;;;11.35;5.55;;;;;;;;;;5114268;28;20396;-74
2023/07/29 02:22:25;;;;;;;11.60;5.80;;;;;;;;;;5114640;28;20070;-75
2023/07/29 02:24:52;;;;;;;12.98;6.43;;;;;;;;;;5095609;28;20020;-74
2023/07/29 02:27:18;;;;;;;15.07;6.68;;;;;;;;;;5096509;28;20116;-74
2023/07/29 02:29:43;;;;;;;11.88;6.88;;;;;;;;;;5096381;28;20065;-74
2023/07/29 02:32:08;;;;;;;12.77;7.43;;;;;;;;;;5114163;28;20023;-74
2023/07/29 02:34:34;;;;;;;13.02;7.13;;;;;;;;;;5096080;28;20481;-74
2023/07/29 02:36:59;;;;;;;14.10;8.15;;;;;;;;;;5113456;28;20024;-75
2023/07/29 02:39:24;;;;;;;15.95;7.57;;;;;;;;;;5096033;28;20023;-75
2023/07/29 02:41:50;;;;;;;15.45;7.80;;;;;;;;;;5114332;28;20051;-75
2023/07/29 02:44:15;;;;;;;13.80;6.57;;;;;;;;;;5114137;28;20472;-74
2023/07/29 02:46:41;;;;;;;14.90;6.55;;;;;;;;;;5095327;28;20019;-74
2023/07/29 02:49:06;;;;;;;13.85;7.43;;;;;;;;;;5114488;28;20430;-74
2023/07/29 02:51:31;;;;;;;15.73;7.88;;;;;;;;;;5095754;28;20027;-75
2023/07/29 02:53:57;;;;;;;13.75;6.93;;;;;;;;;;5096339;28;20027;-73
2023/07/29 02:56:22;;;;;;;15.63;8.40;;;;;;;;;;5113673;28;20031;-74
2023/07/29 02:58:47;;;;;;;15.02;8.32;;;;;;;;;;5113265;28;20034;-74
2023/07/29 03:01:13;;;;;;;14.30;7.63;;;;;;;;;;5113717;28;20046;-74
2023/07/29 03:03:39;;;;;;;14.32;7.68;;;;;;;;;;5113772;28;20108;-74
2023/07/29 03:06:06;;;;;;;16.38;7.30;;;;;;;;;;5113978;28;20020;-74
2023/07/29 03:08:32;;;;;;;11.23;6.15;;;;;;;;;;5113426;28;20024;-74
2023/07/29 03:10:58;;;;;;;13.90;7.60;;;;;;;;;;5095455;28;20119;-74
2023/07/29 03:13:23;;;;;;;18.10;6.90;;;;;;;;;;5094714;28;20047;-74
2023/07/29 03:15:48;;;;;;;17.77;7.97;;;;;;;;;;5095525;28;20054;-74
2023/07/29 03:18:14;;;;;;;16.40;7.93;;;;;;;;;;5113488;28;20388;-74
2023/07/29 03:20:39;;;;;;;13.52;6.75;;;;;;;;;;5095688;28;20019;-74
2023/07/29 03:23:05;;;;;;;13.98;7.28;;;;;;;;;;5113132;28;20023;-74
2023/07/29 03:25:30;;;;;;;15.15;7.97;;;;;;;;;;5113050;28;20084;-74
2023/07/29 03:27:56;;;;;;;13.80;6.60;;;;;;;;;;5113254;28;20024;-74
2023/07/29 03:30:21;;;;;;;12.23;5.72;;;;;;;;;;5113395;28;20016;-74
2023/07/29 03:32:47;;;;;;;13.48;6.40;;;;;;;;;;5095296;28;20426;-74
2023/07/29 03:35:13;;;;;;;14.57;6.75;;;;;;;;;;5094368;28;20098;-74
2023/07/29 03:37:38;;;;;;;15.82;5.93;;;;;;;;;;5112796;28;20016;-74
2023/07/29 03:40:05;;;;;;;9.32;5.05;;;;;;;;;;5095162;28;20516;-74
2023/07/29 03:42:30;;;;;;;11.32;5.78;;;;;;;;;;5113000;28;20026;-74
2023/07/29 03:44:55;;;;;;;14.60;6.65;;;;;;;;;;5113200;28;20103;-74
2023/07/29 03:47:20;;;;;;;12.23;7.32;;;;;;;;;;5113082;28;20550;-74
2023/07/29 03:49:46;;;;;;;11.75;6.53;;;;;;;;;;5112637;28;20034;-74
2023/07/29 03:52:11;;;;;;;12.98;7.15;;;;;;;;;;5113279;28;20098;-74
2023/07/29 03:54:36;;;;;;;13.70;7.50;;;;;;;;;;5113622;28;20028;-74
2023/07/29 03:57:02;;;;;;;15.55;7.32;;;;;;;;;;5094853;28;20027;-74
2023/07/29 03:59:27;;;;;;;12.43;6.25;;;;;;;;;;5112690;28;20028;-74
2023/07/29 04:01:52;;;;;;;15.77;7.72;;;;;;;;;;5112656;28;20032;-74
2023/07/29 04:04:18;;;;;;;17.63;9.38;;;;;;;;;;5113241;28;20396;-74
2023/07/29 04:06:43;;;;;;;16.77;8.73;;;;;;;;;;5113080;28;20052;-74
2023/07/29 04:09:09;;;;;;;13.55;7.47;;;;;;;;;;5112484;28;20061;-74
2023/07/29 04:11:34;;;;;;;16.83;9.13;;;;;;;;;;5113303;28;20476;-74
2023/07/29 04:13:59;;;;;;;16.30;8.35;;;;;;;;;;5112854;28;20028;-74
2023/07/29 04:16:25;;;;;;;16.15;8.63;;;;;;;;;;5113145;28;20019;-73
2023/07/29 04:18:50;;;;;;;15.68;8.35;;;;;;;;;;5112838;28;20020;-74
2023/07/29 04:21:15;;;;;;;13.50;7.97;;;;;;;;;;5113300;28;20027;-74
2023/07/29 04:23:41;;;;;;;16.40;7.70;;;;;;;;;;5094278;28;20609;-74
2023/07/29 04:26:06;;;;;;;12.38;6.38;;;;;;;;;;5113444;28;20061;-74
2023/07/29 04:28:31;;;;;;;16.67;9.13;;;;;;;;;;5112810;28;20027;-74
2023/07/29 04:30:57;;;;;;;15.35;6.43;;;;;;;;;;5112864;28;20035;-74
2023/07/29 04:33:22;;;;;;;15.25;6.93;;;;;;;;;;5112308;28;20031;-74
2023/07/29 04:35:47;;;;;;;14.93;7.68;;;;;;;;;;5112522;28;20028;-74
2023/07/29 04:38:12;;;;;;;19.52;8.95;;;;;;;;;;5094713;28;20047;-74
2023/07/29 04:40:38;;;;;;;18.23;9.68;;;;;;;;;;5094615;28;20374;-74
2023/07/29 04:43:03;;;;;;;16.85;8.13;;;;;;;;;;5093892;28;20519;-74
2023/07/29 04:45:29;;;;;;;14.07;7.97;;;;;;;;;;5112690;28;20016;-76
2023/07/29 04:47:55;;;;;;;14.40;7.07;;;;;;;;;;5096889;28;20428;-74
2023/07/29 04:50:20;;;;;;;17.27;8.30;;;;;;;;;;5116383;28;20069;-75
2023/07/29 04:52:45;;;;;;;16.70;7.40;;;;;;;;;;5097956;28;20477;-75
2023/07/29 04:55:10;;;;;;;14.48;7.43;;;;;;;;;;5098219;28;20031;-75
2023/07/29 04:57:38;;;;;;;15.23;7.88;;;;;;;;;;5115660;28;20016;-75
2023/07/29 05:00:03;;;;;;;17.05;8.40;;;;;;;;;;5098374;28;20039;-75
2023/07/29 05:02:29;;;;;;;16.08;8.75;;;;;;;;;;5098055;28;20028;-75
2023/07/29 05:04:54;;;;;;;15.07;8.25;;;;;;;;;;5097805;28;20458;-75
2023/07/29 05:07:19;;;;;;;15.57;8.25;;;;;;;;;;5097252;28;20042;-75
2023/07/29 05:09:44;;;;;;;17.15;9.63;;;;;;;;;;5116033;28;20027;-75
2023/07/29 05:12:10;;;;;;;19.00;8.65;;;;;;;;;;5116200;28;20016;-75
2023/07/29 05:14:35;;;;;;;12.85;7.32;;;;;;;;;;5115554;28;20111;-75
2023/07/29 05:17:00;;;;;;;15.38;9.05;;;;;;;;;;5115941;28;20473;-75
2023/07/29 05:19:26;;;;;;;13.15;7.63;;;;;;;;;;5115913;28;20020;-75
2023/07/29 05:21:51;;;;;;;18.92;9.35;;;;;;;;;;5097130;28;20515;-74
2023/07/29 05:24:17;;;;;;;17.30;9.20;;;;;;;;;;5115414;28;20027;-75
2023/07/29 05:26:42;;;;;;;16.77;8.88;;;;;;;;;;5097434;28;20024;-75
2023/07/29 05:29:07;;;;;;;17.25;8.40;;;;;;;;;;5115263;28;20118;-75
2023/07/29 05:31:32;;;;;;;16.10;8.35;;;;;;;;;;5115545;28;20019;-75
2023/07/29 05:33:58;;;;;;;17.50;8.60;;;;;;;;;;5115452;28;20469;-75
2023/07/29 05:36:24;;;;;;;17.02;8.73;;;;;;;;;;5097085;28;20056;-74
2023/07/29 05:38:49;;;;;;;18.73;9.27;;;;;;;;;;5115802;28;20422;-75
2023/07/29 05:41:15;;;;;;;16.70;8.48;;;;;;;;;;5096814;28;20055;-75
2023/07/29 05:43:42;;;;;;;16.20;8.48;;;;;;;;;;5115535;28;20023;-74
2023/07/29 05:46:07;;;;;;;13.73;7.22;;;;;;;;;;5096974;28;20031;-74
2023/07/29 05:48:33;;;;;;;17.08;8.10;;;;;;;;;;5115338;28;20115;-74
2023/07/29 05:50:59;;;;;;;13.95;8.13;;;;;;;;;;5096759;28;20030;-74
2023/07/29 05:53:24;;;;;;;12.93;7.03;;;;;;;;;;5114989;28;20023;-74
2023/07/29 05:55:49;;;;;;;17.98;9.50;;;;;;;;;;5114921;28;20022;-74
2023/07/29 05:58:14;;;;;;;14.45;8.15;;;;;;;;;;5096170;28;20034;-74
2023/07/29 06:00:40;;;;;;;14.98;8.10;;;;;;;;;;5114391;28;20020;-75
2023/07/29 06:03:05;;;;;;;11.07;5.90;;;;;;;;;;5114512;28;20063;-74
2023/07/29 06:05:30;;;;;;;9.63;5.68;;;;;;;;;;5115309;28;20022;-73
2023/07/29 06:07:56;;;;;;;13.05;7.72;;;;;;;;;;5114697;28;20027;-73
2023/07/29 06:10:22;;;;;;;9.38;5.43;;;;;;;;;;5114897;28;20103;-74
2023/07/29 06:12:47;;;;;;;12.55;7.38;;;;;;;;;;5096404;28;20396;-74
2023/07/29 06:15:13;;;;;;;15.30;8.30;;;;;;;;;;5114299;28;20030;-75
2023/07/29 06:17:38;;;;;;;17.50;8.02;;;;;;;;;;5114916;28;20020;-75
2023/07/29 06:20:04;;;;;;;13.68;8.10;;;;;;;;;;5114593;28;20095;-74
2023/07/29 06:22:29;;;;;;;13.95;8.13;;;;;;;;;;5096001;28;20393;-74
2023/07/29 06:24:55;;;;;;;16.42;8.52;;;;;;;;;;5114805;28;20028;-75
2023/07/29 06:27:20;;;;;;;11.95;6.88;;;;;;;;;;5095819;28;20038;-74
2023/07/29 06:29:45;;;;;;;14.75;8.45;;;;;;;;;;5115027;28;20030;-74
2023/07/29 06:32:11;;;;;;;13.43;8.00;;;;;;;;;;5114174;28;20024;-74
2023/07/29 06:34:36;;;;;;;12.73;7.75;;;;;;;;;;5096069;28;20088;-76
2023/07/29 06:37:01;;;;;;;13.52;7.80;;;;;;;;;;5114290;28;20034;-77
2023/07/29 06:39:27;;;;;;;14.57;7.75;;;;;;;;;;5113721;28;20106;-77
2023/07/29 06:41:52;;;;;;;15.13;8.38;;;;;;;;;;5114094;28;20037;-77
2023/07/29 06:44:17;;;;;;;15.73;8.27;;;;;;;;;;5096535;28;20042;-75
2023/07/29 06:46:43;;;;;;;13.82;7.32;;;;;;;;;;5113357;28;20031;-74
2023/07/29 06:49:08;;;;;;;13.85;8.48;;;;;;;;;;5114357;28;20038;-75
2023/07/29 06:51:35;;;;;;;14.80;8.68;;;;;;;;;;5114029;28;20027;-75
2023/07/29 06:54:01;;;;;;;13.02;8.05;;;;;;;;;;5113738;28;20042;-74
2023/07/29 06:56:26;;;;;;;16.83;9.43;;;;;;;;;;5095704;28;20027;-74
2023/07/29 06:58:51;;;;;;;12.77;8.40;;;;;;;;;;5078575;28;20114;-75
2023/07/29 07:01:17;;;;;;;13.35;8.32;;;;;;;;;;5113987;28;20485;-75
2023/07/29 07:03:42;;;;;;;16.88;9.73;;;;;;;;;;5095247;28;20431;-75
2023/07/29 07:06:07;;;;;;;13.43;8.75;;;;;;;;;;5095805;28;20032;-76
2023/07/29 07:08:33;;;;;;;10.52;6.25;;;;;;;;;;5113825;28;20055;-75
2023/07/29 07:10:58;;;;;;;16.70;9.73;;;;;;;;;;5113281;28;20019;-75
2023/07/29 07:13:23;;;;;;;17.92;10.18;;;;;;;;;;5113304;28;20102;-75
2023/07/29 07:15:48;;;;;;;14.27;9.05;;;;;;;;;;5095834;28;20028;-75
2023/07/29 07:18:14;;;;;;;14.20;8.35;;;;;;;;;;5114055;28;20098;-75
2023/07/29 07:20:39;;;;;;;13.38;7.88;;;;;;;;;;5113356;28;20016;-76
2023/07/29 07:23:11;;;;;;;9.80;6.05;;;;;;;;;;5113411;28;20072;-75
2023/07/29 07:25:36;;;;;;;14.00;9.02;;;;;;;;;;5113635;28;20045;-76
2023/07/29 07:28:02;;;;;;;17.70;10.82;;;;;;;;;;5112762;28;20536;-76
2023/07/29 07:30:27;;;;;;;13.48;8.40;;;;;;;;;;5095297;28;20065;-75
2023/07/29 07:32:52;;;;;;;15.15;8.68;;;;;;;;;;5113501;28;20104;-75
2023/07/29 07:35:18;;;;;;;12.52;7.07;;;;;;;;;;5094862;28;20015;-75
2023/07/29 07:37:44;;;;;;;12.07;7.47;;;;;;;;;;5078540;28;20068;-75
2023/07/29 07:40:09;;;;;;;14.98;7.97;;;;;;;;;;5094353;28;20103;-76
2023/07/29 07:42:34;;;;;;;16.25;8.85;;;;;;;;;;5113064;28;20031;-76
2023/07/29 07:45:00;;;;;;;15.45;8.50;;;;;;;;;;5095376;28;20028;-75
2023/07/29 07:47:25;;;;;;;14.40;8.05;;;;;;;;;;5113404;28;20028;-76
2023/07/29 07:49:51;;;;;;;13.57;8.30;;;;;;;;;;5094576;28;20073;-76
2023/07/29 07:52:16;;;;;;;14.40;8.27;;;;;;;;;;5113305;28;20102;-76
2023/07/29 07:54:41;;;;;;;12.85;7.88;;;;;;;;;;5100304;28;20020;-76
2023/07/29 07:57:06;;;;;;;14.45;8.18;;;;;;;;;;5092661;28;20393;-75
2023/07/29 07:59:32;;;;;;;15.20;8.07;;;;;;;;;;5092773;28;20074;-73
2023/07/29 08:01:57;;;;;;;18.40;8.65;;;;;;;;;;5074556;28;20065;-73
2023/07/29 08:04:22;;;;;;;14.68;8.02;;;;;;;;;;5076630;28;20073;-73
2023/07/29 08:06:47;;;;;;;15.75;8.90;;;;;;;;;;5094917;28;20388;-73
2023/07/29 08:09:13;;;;;;;13.75;8.82;;;;;;;;;;5112865;28;20035;-73
2023/07/29 08:11:38;;;;;;;11.70;6.88;;;;;;;;;;5112859;28;20027;-73
2023/07/29 08:14:03;;;;;;;13.88;8.27;;;;;;;;;;5093976;28;20020;-73
2023/07/29 08:16:29;;;;;;;15.73;8.18;;;;;;;;;;5094522;28;20028;-73
2023/07/29 08:18:54;;;;;;;15.80;8.45;;;;;;;;;;5094329;28;20028;-73
2023/07/29 08:21:19;;;;;;;14.13;7.68;;;;;;;;;;5114607;28;20027;-75
2023/07/29 08:23:44;;;;;;;14.73;7.53;;;;;;;;;;5098645;28;20439;-76
2023/07/29 08:26:10;;;;;;;11.20;6.90;;;;;;;;;;5116707;28;20023;-76
2023/07/29 08:28:37;;;;;;;11.80;6.53;;;;;;;;;;5116704;28;20024;-76
2023/07/29 08:31:03;;;;;;;17.20;7.65;;;;;;;;;;5098301;28;20396;-76
2023/07/29 08:33:28;;;;;;;14.95;6.78;;;;;;;;;;5116712;28;20026;-76
2023/07/29 08:35:54;;;;;;;14.48;7.45;;;;;;;;;;5098283;28;20015;-76
2023/07/29 08:38:20;;;;;;;14.18;7.80;;;;;;;;;;5080979;28;20022;-76
2023/07/29 08:41:13;;;;;;;13.93;7.53;;;;;;;;;;5081131;28;20499;-76
2023/07/29 08:43:44;;;;;;;10.75;6.43;;;;;;;;;;5062529;28;20115;-75
2023/07/29 08:46:10;;;;;;;12.80;7.15;;;;;;;;;;5098205;28;20094;-76
2023/07/29 08:48:40;;;;;;;14.90;9.00;;;;;;;;;;5097719;28;20114;-76
2023/07/29 08:51:08;;;;;;;12.20;7.60;;;;;;;;;;5098504;28;20028;-76
2023/07/29 08:53:33;;;;;;;16.20;8.50;;;;;;;;;;5098347;28;20019;-75
2023/07/29 08:55:59;;;;;;;13.10;7.80;;;;;;;;;;5098024;28;20051;-76
2023/07/29 08:58:24;;;;;;;11.73;6.68;;;;;;;;;;5115716;28;20031;-73
2023/07/29 09:00:50;;;;;;;12.82;7.75;;;;;;;;;;5097741;28;20039;-73
2023/07/29 09:03:15;;;;;;;12.63;7.25;;;;;;;;;;5097832;28;20031;-73
2023/07/29 09:05:41;;;;;;;15.55;8.20;;;;;;;;;;5115293;28;20038;-73
2023/07/29 09:08:06;;;;;;;16.17;7.90;;;;;;;;;;5116155;28;20093;-73
2023/07/29 09:10:36;;;;;;;14.23;7.03;;;;;;;;;;5097646;28;20051;-73
2023/07/29 09:13:03;;;;;;;11.52;7.28;;;;;;;;;;5097864;28;20374;-75
2023/07/29 09:15:30;;;;;;;14.82;7.20;;;;;;;;;;5115603;28;20503;-76
2023/07/29 09:17:56;;;;;;;16.45;8.30;;;;;;;;;;5097547;28;20072;-76
2023/07/29 09:20:26;;;;;;;11.48;7.13;;;;;;;;;;5080215;28;20020;-76
2023/07/29 09:22:52;;;;;;;12.73;7.75;;;;;;;;;;5080660;28;20023;-72
2023/07/29 09:25:23;;;;;;;15.50;7.10;;;;;;;;;;5097695;28;20110;-73
2023/07/29 09:27:48;;;;;;;11.88;7.20;;;;;;;;;;5097574;28;20024;-76
2023/07/29 09:30:17;;;;;;;13.55;7.18;;;;;;;;;;5097556;28;20496;-76
2023/07/29 09:32:42;;;;;;;13.70;7.38;;;;;;;;;;5096044;28;20019;-76
2023/07/29 09:35:12;;;;;;;9.27;6.60;;;;;;;;;;5115784;28;20027;-76
2023/07/29 09:37:40;;;;;;;12.15;6.82;;;;;;;;;;5097328;28;20503;-76
2023/07/29 09:40:06;;;;;;;15.48;7.53;;;;;;;;;;5097452;28;20111;-76
2023/07/29 09:42:32;;;;;;;14.07;8.52;;;;;;;;;;5115357;28;20023;-76
2023/07/29 09:44:57;;;;;;;13.93;7.85;;;;;;;;;;5096455;28;20047;-76
2023/07/29 09:47:24;;;;;;;11.85;7.15;;;;;;;;;;5097329;28;20020;-76
2023/07/29 09:49:50;;;;;;;12.15;8.40;;;;;;;;;;5115124;28;20096;-75
2023/07/29 09:52:20;;;;;;;12.18;7.07;;;;;;;;;;5096386;28;20030;-75
2023/07/29 09:54:46;;;;;;;14.52;7.35;;;;;;;;;;5097319;28;20482;-72
2023/07/29 09:57:13;;;;;;;12.85;6.75;;;;;;;;;;5096581;28;20024;-72
2023/07/29 09:59:39;;;;;;;12.07;8.23;;;;;;;;;;5096807;28;20023;-72
2023/07/29 10:02:04;;;;;;;11.73;7.63;;;;;;;;;;5095622;28;20081;-72
2023/07/29 10:04:30;;;;;;;16.02;8.15;;;;;;;;;;5118112;22;20497;-77
2023/07/29 10:06:56;;;;;;;11.43;7.70;;;;;;;;;;5076838;28;20523;-77
2023/07/29 10:09:22;;;;;;;16.08;7.05;;;;;;;;;;5076899;28;20028;-77
2023/07/29 10:11:47;;;;;;;12.27;7.50;;;;;;;;;;5084426;28;20392;-77
2023/07/29 10:14:13;;;;;;;14.77;7.45;;;;;;;;;;5096401;28;20025;-78
2023/07/29 10:16:41;;;;;;;12.00;5.93;;;;;;;;;;5097081;28;20106;-77
2023/07/29 10:19:07;;;;;;;10.98;6.35;;;;;;;;;;5097337;28;20019;-77
2023/07/29 10:21:33;;;;;;;12.82;6.88;;;;;;;;;;5099340;28;20034;-78
2023/07/29 10:24:01;;;;;;;11.25;6.72;;;;;;;;;;5082105;28;20118;-77
2023/07/29 10:26:28;;;;;;;11.57;6.07;;;;;;;;;;5097166;28;20384;-77
2023/07/29 10:28:55;;;;;;;10.52;5.72;;;;;;;;;;5097789;28;20046;-78
2023/07/29 10:31:21;;;;;;;12.35;5.80;;;;;;;;;;5078186;28;20020;-77
2023/07/29 10:33:47;;;;;;;9.88;5.35;;;;;;;;;;5076460;28;20455;-77
2023/07/29 10:36:12;;;;;;;10.25;5.45;;;;;;;;;;5076770;28;20103;-77
2023/07/29 10:38:37;;;;;;;8.77;4.95;;;;;;;;;;5098942;28;20023;-76
2023/07/29 10:41:03;;;;;;;9.52;5.40;;;;;;;;;;5115334;28;20031;-77
2023/07/29 10:43:37;;;;;;;8.98;5.15;;;;;;;;;;5095977;28;20019;-77
2023/07/29 10:46:21;;;;;;;10.52;5.18;;;;;;;;;;5095995;28;20062;-76
2023/07/29 10:48:56;;;;;;;8.93;5.35;;;;;;;;;;5096622;28;20039;-77
2023/07/29 10:51:36;;;;;;;9.55;6.28;;;;;;;;;;5079377;28;20059;-77
2023/07/29 10:54:10;;;;;;;9.20;5.07;;;;;;;;;;5085504;28;20024;-77
2023/07/29 10:56:37;;;;;;;9.40;5.20;;;;;;;;;;5095911;28;20032;-76
2023/07/29 10:59:35;;;;;;;11.18;5.93;;;;;;;;;;5095996;28;20027;-76
2023/07/29 11:02:01;;;;;;;9.90;5.57;;;;;;;;;;5086517;28;20039;-76
2023/07/29 11:04:33;;;;;;;9.40;5.30;;;;;;;;;;5095976;28;20042;-76
2023/07/29 11:07:04;;;;;;;9.50;5.50;;;;;;;;;;5096751;28;20030;-76
2023/07/29 11:09:51;;;;;;;6.90;4.95;;;;;;;;;;5114422;28;20045;-76
2023/07/29 11:12:40;;;;;;;8.75;4.80;;;;;;;;;;5096372;28;20110;-76
2023/07/29 11:15:25;;;;;;;8.70;4.88;;;;;;;;;;5095778;28;20023;-76
2023/07/29 11:17:51;;;;;;;8.75;4.38;;;;;;;;;;5114412;28;20087;-77
2023/07/29 11:20:30;;;;;;;11.07;5.03;;;;;;;;;;5113991;28;20035;-76
2023/07/29 11:22:57;;;;;;;6.65;4.20;;;;;;;;;;5095813;28;20415;-77
2023/07/29 11:25:23;;;;;;;6.90;4.88;;;;;;;;;;5095807;28;20031;-76
2023/07/29 11:27:51;;;;;;;8.52;3.53;;;;;;;;;;5096322;28;20024;-77
2023/07/29 11:30:16;;;;;;;5.93;3.58;;;;;;;;;;5096393;28;20023;-77
2023/07/29 11:32:43;;;;;;;6.07;4.03;;;;;;;;;;5114019;28;20038;-76
2023/07/29 11:35:14;;;;;;;7.10;3.88;;;;;;;;;;5096590;28;20031;-77
2023/07/29 11:37:39;;;;;;;9.75;3.90;;;;;;;;;;5114725;28;20032;-75
2023/07/29 11:40:06;;;;;;;7.00;3.92;;;;;;;;;;5096379;28;20020;-76
2023/07/29 11:42:33;;;;;;;6.43;3.25;;;;;;;;;;5095315;28;20473;-76
2023/07/29 11:44:58;;;;;;;6.80;3.58;;;;;;;;;;5095697;28;20528;-76
2023/07/29 11:47:24;;;;;;;9.18;3.60;;;;;;;;;;5114029;28;20043;-76
2023/07/29 11:49:49;;;;;;;6.20;3.20;;;;;;;;;;5095500;28;20023;-76
2023/07/29 11:52:18;;;;;;;6.28;3.67;;;;;;;;;;5113897;28;20366;-76
2023/07/29 11:54:44;;;;;;;11.02;4.18;;;;;;;;;;5095939;28;20019;-76
2023/07/29 11:57:09;;;;;;;9.57;4.07;;;;;;;;;;5098128;28;20499;-77
2023/07/29 11:59:36;;;;;;;10.60;3.72;;;;;;;;;;5099926;28;20030;-77
2023/07/29 12:02:02;;;;;;;5.85;4.07;;;;;;;;;;5099957;28;20034;-77
2023/07/29 12:04:29;;;;;;;9.02;3.60;;;;;;;;;;5099925;28;20084;-77
2023/07/29 12:06:54;;;;;;;9.65;3.78;;;;;;;;;;5117770;28;20019;-77
2023/07/29 12:09:19;;;;;;;8.85;4.35;;;;;;;;;;5099160;28;20023;-77
2023/07/29 12:11:45;;;;;;;5.47;3.53;;;;;;;;;;5099647;28;20062;-77
2023/07/29 12:14:10;;;;;;;8.15;3.10;;;;;;;;;;5099624;28;20534;-77
2023/07/29 12:16:47;;;;;;;6.05;3.30;;;;;;;;;;5117727;28;20024;-77
2023/07/29 12:19:13;;;;;;;6.78;3.38;;;;;;;;;;5099922;28;20036;-77
2023/07/29 12:21:41;;;;;;;7.68;3.15;;;;;;;;;;5099356;28;20027;-78
2023/07/29 12:24:06;;;;;;;7.45;3.25;;;;;;;;;;5117574;28;20039;-77
2023/07/29 12:26:32;;;;;;;6.18;3.05;;;;;;;;;;5099287;28;20015;-77
2023/07/29 12:28:57;;;;;;;10.27;3.83;;;;;;;;;;5087895;28;20491;-77
2023/07/29 12:31:31;;;;;;;8.38;3.30;;;;;;;;;;5078932;28;20028;-77
2023/07/29 12:33:56;;;;;;;6.75;3.55;;;;;;;;;;5096479;28;20016;-77
2023/07/29 12:36:21;;;;;;;9.50;3.63;;;;;;;;;;5097448;28;20458;-77
2023/07/29 12:38:47;;;;;;;9.30;3.63;;;;;;;;;;5079395;28;20024;-78
2023/07/29 12:41:12;;;;;;;8.00;3.08;;;;;;;;;;5097437;28;20028;-77
2023/07/29 12:43:40;;;;;;;8.52;3.20;;;;;;;;;;5103028;28;20019;-77
2023/07/29 12:46:05;;;;;;;6.70;3.33;;;;;;;;;;5100074;28;20471;-78
2023/07/29 12:48:31;;;;;;;9.38;3.80;;;;;;;;;;5080392;28;20109;-77
2023/07/29 12:50:56;;;;;;;10.68;3.63;;;;;;;;;;5096976;28;20024;-77
2023/07/29 12:53:21;;;;;;;6.85;3.28;;;;;;;;;;5097357;28;20024;-77
2023/07/29 12:55:46;;;;;;;4.47;2.90;;;;;;;;;;5062709;28;20111;-78
2023/07/29 12:58:12;;;;;;;6.82;3.33;;;;;;;;;;5097039;28;20130;-76
2023/07/29 13:00:38;;;;;;;9.18;3.78;;;;;;;;;;5087274;28;20438;-77
2023/07/29 13:03:05;;;;;;;5.85;3.10;;;;;;;;;;5099410;28;20051;-77
2023/07/29 13:05:30;;;;;;;5.18;3.30;;;;;;;;;;5099424;28;20034;-78
2023/07/29 13:07:56;;;;;;;7.88;2.90;;;;;;;;;;5082001;28;20392;-78
2023/07/29 13:10:21;;;;;;;5.47;3.50;;;;;;;;;;5101523;28;20073;-77
2023/07/29 13:12:46;;;;;;;9.75;3.28;;;;;;;;;;5116698;28;20081;-78
2023/07/29 13:15:11;;;;;;;9.90;3.95;;;;;;;;;;5116905;28;20035;-77
2023/07/29 13:17:37;;;;;;;6.53;3.38;;;;;;;;;;5117625;28;20020;-78
2023/07/29 13:20:03;;;;;;;9.95;4.18;;;;;;;;;;5100393;28;20028;-79
2023/07/29 13:22:28;;;;;;;7.80;3.40;;;;;;;;;;5099168;28;20114;-78
2023/07/29 13:24:54;;;;;;;9.07;3.58;;;;;;;;;;5117218;28;20038;-77
2023/07/29 13:27:19;;;;;;;8.65;3.58;;;;;;;;;;5116877;28;20016;-77
2023/07/29 13:29:45;;;;;;;7.65;3.47;;;;;;;;;;5117701;28;20027;-78
2023/07/29 13:32:13;;;;;;;7.43;3.33;;;;;;;;;;5117113;28;20378;-77
2023/07/29 13:34:39;;;;;;;7.75;3.33;;;;;;;;;;5116637;28;20088;-78
2023/07/29 13:37:05;;;;;;;7.00;3.40;;;;;;;;;;5099187;28;20015;-78
2023/07/29 13:39:31;;;;;;;13.45;2.83;;;;;;;;;;5097794;28;20030;-78
2023/07/29 13:41:56;;;;;;;5.65;2.72;;;;;;;;;;5117276;28;20412;-78
2023/07/29 13:44:21;;;;;;;6.32;3.50;;;;;;;;;;5117432;28;20054;-77
2023/07/29 13:46:46;;;;;;;6.85;3.45;;;;;;;;;;5090900;28;20073;-77
2023/07/29 13:49:12;;;;;;;9.73;3.58;;;;;;;;;;5097026;28;20035;-77
2023/07/29 13:51:37;;;;;;;8.90;4.63;;;;;;;;;;5078283;28;20036;-77
2023/07/29 13:54:02;;;;;;;12.30;4.13;;;;;;;;;;5095653;28;20027;-78
2023/07/29 13:56:28;;;;;;;8.13;4.20;;;;;;;;;;5095798;28;20539;-76
2023/07/29 13:58:53;;;;;;;5.75;3.53;;;;;;;;;;5095659;28;20027;-77
2023/07/29 14:01:18;;;;;;;10.13;4.20;;;;;;;;;;5095953;28;20019;-78
2023/07/29 14:03:43;;;;;;;7.90;3.47;;;;;;;;;;5060540;28;20050;-78
2023/07/29 14:06:11;;;;;;;6.15;3.50;;;;;;;;;;5096743;28;20027;-76
2023/07/29 14:08:36;;;;;;;5.38;2.80;;;;;;;;;;5107971;28;20080;-76
2023/07/29 14:11:01;;;;;;;5.00;2.28;;;;;;;;;;5097698;28;20016;-77
2023/07/29 14:13:27;;;;;;;9.80;3.35;;;;;;;;;;5115559;28;20047;-77
2023/07/29 14:15:52;;;;;;;7.03;2.67;;;;;;;;;;5115722;28;20083;-77
2023/07/29 14:18:17;;;;;;;8.25;2.63;;;;;;;;;;5096653;28;20481;-77
2023/07/29 14:20:43;;;;;;;5.95;2.60;;;;;;;;;;5115418;28;20027;-78
2023/07/29 14:23:08;;;;;;;4.28;2.10;;;;;;;;;;5116056;28;20106;-77
2023/07/29 14:25:33;;;;;;;6.43;2.10;;;;;;;;;;5115448;28;20023;-77
2023/07/29 14:27:58;;;;;;;5.90;1.80;;;;;;;;;;5097602;28;20057;-77
2023/07/29 14:30:24;;;;;;;5.35;2.30;;;;;;;;;;5114500;28;20388;-76
2023/07/29 14:32:49;;;;;;;3.95;2.38;;;;;;;;;;5097588;28;20531;-77